Box Elder, South Dakota
Current Conditions -  °F | °C
As of 5:58 AM on Sunday 23 Nov 2014 (Local Time) from KRCA Reporting Station
Clear Clear  
Wind Chill: 26°   Ceiling: Unl
Heat Index: 37°   Visibility: 10mi
Dew Point: 18°   Wind: 24mph
Humidity: 46%   Direction: 330°NNW
Pressure: 29.63"   Gusts: 33mph
Location:  44.11°N, 103.07°W
Report Text: KRCA 231258Z AUTO 33021G29KT 10SM CLR 03/M08 A2963 RMK AO2 PK WND 33029/35 SLP049 T00291077 $
Loading
Personal Weather Stations






























Interactive Weather Map New forecast layout! Learn more

10-Day Weather Forecast

Advertisements
Track Severe Weather on mobile